Terminal Aerodrome Forecast
Issued by NWS Chicago, IL

Home | Current Version | Previous Version | Text Only | Print | Product List | Glossary Off
Versions: 1 2 3 4 5 6 7 8 9 10 11 12 13 14 15 16 17 18 19 20 21 22 23 24 25 26 27 28 29 30 31 32 33

000
FTUS43 KLOT 302300
TAFRFD
TAF
KRFD 302320Z 3100/3124 30007KT P6SM SCT060
     FM310300 00000KT P6SM SCT060
     FM311400 26007KT P6SM SCT050
     FM311900 26011KT P6SM VCSH BKN060=

USA.gov is the U.S. government's official web portal to all federal, state and local government web resources and services.